createdAt,value
2022-10-20T00:01:26.820Z,100108.43
2022-10-20T00:03:55.981Z,100110.68
2022-10-20T00:06:30.468Z,100109.83
2022-10-20T00:09:01.901Z,100110.60
2022-10-20T00:11:31.287Z,100108.20
2022-10-20T00:14:02.403Z,100111.80
2022-10-20T00:16:35.945Z,100112.80
2022-10-20T00:19:04.536Z,100109.23
2022-10-20T00:21:33.473Z,100099.42
2022-10-20T00:24:02.877Z,100102.49
2022-10-20T00:26:33.125Z,100105.80
2022-10-20T00:29:04.089Z,100101.52
2022-10-20T00:31:32.735Z,100085.08
2022-10-20T00:34:01.120Z,100098.48
2022-10-20T00:36:29.660Z,100100.08
2022-10-20T00:39:03.977Z,100107.39
2022-10-20T00:41:33.909Z,100104.48
2022-10-20T00:44:42.244Z,100103.61
2022-10-20T00:47:19.800Z,100106.66
2022-10-20T00:49:50.252Z,100107.98
2022-10-20T00:52:21.157Z,100106.90
2022-10-20T00:54:50.040Z,100114.33
2022-10-20T00:57:19.178Z,100112.17
2022-10-20T00:59:47.748Z,100118.31
2022-10-20T01:02:16.151Z,100130.74
2022-10-20T01:04:44.714Z,100130.24
2022-10-20T01:07:13.112Z,100136.46
2022-10-20T01:09:41.783Z,100119.55
2022-10-20T01:12:34.137Z,100123.27
2022-10-20T01:15:32.007Z,100130.23
2022-10-20T01:18:33.359Z,100132.85
2022-10-20T01:21:44.336Z,100136.58
2022-10-20T01:24:39.957Z,100141.45
2022-10-20T01:27:30.540Z,100156.17
2022-10-20T01:30:18.681Z,100156.36
2022-10-20T01:33:34.262Z,100164.70
2022-10-20T01:36:18.322Z,100162.41
2022-10-20T01:39:00.425Z,100164.80
2022-10-20T01:41:49.704Z,100169.55
2022-10-20T01:44:19.947Z,100170.21
2022-10-20T01:46:48.973Z,100172.02
2022-10-20T01:49:17.579Z,100176.46
2022-10-20T01:51:46.065Z,100176.39
2022-10-20T01:54:27.577Z,100183.70
2022-10-20T01:57:17.651Z,100188.15
2022-10-20T02:00:06.028Z,100197.72
2022-10-20T02:03:30.382Z,100197.44
2022-10-20T02:06:35.510Z,100209.30
2022-10-20T02:09:08.953Z,100205.09
2022-10-20T02:12:29.193Z,100213.40
2022-10-20T02:14:58.412Z,100218.51
2022-10-20T02:17:29.133Z,100222.92
2022-10-20T02:19:58.484Z,100225.38
2022-10-20T02:22:27.628Z,100231.93
2022-10-20T02:24:56.309Z,100234.98
2022-10-20T02:27:34.426Z,100237.95
2022-10-20T02:30:09.980Z,100242.90
2022-10-20T02:32:41.513Z,100242.95
2022-10-20T02:35:15.398Z,100244.19
2022-10-20T02:37:44.026Z,100243.39
2022-10-20T02:40:13.115Z,100242.33
2022-10-20T02:42:43.552Z,100247.24
2022-10-20T02:45:11.924Z,100250.73
2022-10-20T02:47:40.406Z,100252.39
2022-10-20T02:50:10.313Z,100257.15
2022-10-20T02:52:38.698Z,100256.14
2022-10-20T02:55:08.170Z,100264.38
2022-10-20T02:57:36.887Z,100264.75
2022-10-20T03:00:07.333Z,100265.57
2022-10-20T03:02:35.597Z,100263.52
2022-10-20T03:05:04.267Z,100268.04
2022-10-20T03:07:32.807Z,100276.02
2022-10-20T03:10:01.221Z,100271.44
2022-10-20T03:12:31.568Z,100277.02
2022-10-20T03:15:00.633Z,100279.36
2022-10-20T03:17:29.124Z,100280.17
2022-10-20T03:19:57.507Z,100273.98
2022-10-20T03:22:25.927Z,100266.46
2022-10-20T03:24:54.360Z,100268.30
2022-10-20T03:27:22.695Z,100276.19
2022-10-20T03:29:51.093Z,100271.73
2022-10-20T03:32:19.792Z,100273.99
2022-10-20T03:34:48.026Z,100276.25
2022-10-20T03:37:16.282Z,100281.86
2022-10-20T03:39:44.538Z,100289.79
2022-10-20T03:42:12.921Z,100292.63
2022-10-20T03:44:41.300Z,100295.55
2022-10-20T03:47:09.781Z,100293.36
2022-10-20T03:49:39.143Z,100294.09
2022-10-20T03:52:07.747Z,100299.02
2022-10-20T03:54:37.006Z,100298.59
2022-10-20T03:57:07.646Z,100306.61
2022-10-20T03:59:36.688Z,100302.45
2022-10-20T04:02:05.343Z,100300.98
2022-10-20T04:04:33.979Z,100306.73
2022-10-20T04:07:02.228Z,100300.48
2022-10-20T04:09:31.726Z,100304.35
2022-10-20T04:12:00.023Z,100298.86
2022-10-20T04:14:28.488Z,100296.66
2022-10-20T04:16:56.760Z,100300.04
2022-10-20T04:19:25.183Z,100296.64
2022-10-20T04:21:53.677Z,100299.69
2022-10-20T04:24:21.998Z,100306.11
2022-10-20T04:29:23.449Z,100317.79
2022-10-20T04:31:51.762Z,100315.96
2022-10-20T04:34:20.060Z,100320.00
2022-10-20T04:36:48.366Z,100318.66
2022-10-20T04:39:17.090Z,100327.44
2022-10-20T04:41:46.136Z,100334.59
2022-10-20T04:44:14.635Z,100339.50
2022-10-20T04:46:43.354Z,100336.05
2022-10-20T04:49:11.691Z,100336.37
2022-10-20T04:51:40.392Z,100339.06
2022-10-20T04:54:08.679Z,100340.81
2022-10-20T04:56:37.005Z,100343.90
2022-10-20T04:59:09.494Z,100340.89
2022-10-20T05:01:41.207Z,100349.98
2022-10-20T05:04:11.157Z,100359.62
2022-10-20T05:06:39.381Z,100352.71
2022-10-20T05:09:07.785Z,100365.69
2022-10-20T05:11:37.122Z,100370.03
2022-10-20T05:14:05.478Z,100373.73
2022-10-20T05:16:34.577Z,100376.30
2022-10-20T05:19:03.098Z,100384.48
2022-10-20T05:21:32.050Z,100386.20
2022-10-20T05:24:03.969Z,100381.80
2022-10-20T05:26:37.284Z,100389.71
2022-10-20T05:29:08.730Z,100387.94
2022-10-20T05:31:44.444Z,100402.14
2022-10-20T05:34:15.827Z,100397.11
2022-10-20T05:36:44.393Z,100408.52
2022-10-20T05:39:12.666Z,100403.64
2022-10-20T05:41:41.003Z,100405.23
2022-10-20T05:44:12.534Z,100419.27
2022-10-20T05:46:42.806Z,100409.76
2022-10-20T05:49:17.709Z,100422.56
2022-10-20T05:51:47.382Z,100420.35
2022-10-20T05:54:16.152Z,100428.57
2022-10-20T05:56:44.517Z,100432.20
2022-10-20T05:59:14.317Z,100444.79
2022-10-20T06:01:51.173Z,100439.39
2022-10-20T06:04:28.148Z,100446.61
2022-10-20T06:06:56.751Z,100447.60
2022-10-20T06:09:25.142Z,100462.69
2022-10-20T06:11:54.029Z,100454.77
2022-10-20T06:14:22.692Z,100456.21
2022-10-20T06:16:54.320Z,100470.02
2022-10-20T06:19:24.317Z,100467.29
2022-10-20T06:21:52.801Z,100467.98
2022-10-20T06:24:21.873Z,100475.88
2022-10-20T06:26:50.484Z,100472.67
2022-10-20T06:29:19.652Z,100467.84
2022-10-20T06:31:51.318Z,100475.64
2022-10-20T06:34:24.046Z,100476.31
2022-10-20T06:36:53.191Z,100476.11
2022-10-20T06:39:24.210Z,100477.40
2022-10-20T06:41:59.444Z,100478.77
2022-10-20T06:44:33.039Z,100480.31
2022-10-20T06:47:01.290Z,100479.98
2022-10-20T06:49:29.774Z,100481.43
2022-10-20T06:51:57.997Z,100488.14
2022-10-20T06:54:26.464Z,100492.09
2022-10-20T06:56:54.711Z,100491.20
2022-10-20T06:59:23.076Z,100492.52
2022-10-20T07:01:53.262Z,100511.73
2022-10-20T07:04:21.739Z,100504.23
2022-10-20T07:06:50.356Z,100509.33
2022-10-20T07:09:19.722Z,100497.77
2022-10-20T07:11:52.933Z,100516.99
2022-10-20T07:14:21.425Z,100501.71
2022-10-20T07:16:49.781Z,100504.86
2022-10-20T07:19:19.042Z,100506.68
2022-10-20T07:21:47.287Z,100515.73
2022-10-20T07:24:16.908Z,100519.41
2022-10-20T07:26:45.205Z,100510.27
2022-10-20T07:29:14.942Z,100509.21
2022-10-20T07:31:48.350Z,100509.49
2022-10-20T07:34:27.122Z,100521.25
2022-10-20T07:36:56.676Z,100522.72
2022-10-20T07:39:26.047Z,100520.44
2022-10-20T07:41:54.766Z,100522.52
2022-10-20T07:44:23.248Z,100523.55
2022-10-20T07:46:51.914Z,100518.01
2022-10-20T07:52:08.615Z,100517.18
2022-10-20T07:54:36.918Z,100519.29
2022-10-20T07:57:05.214Z,100520.71
2022-10-20T07:59:33.636Z,100521.96
2022-10-20T08:02:02.189Z,100521.45
2022-10-20T08:04:31.831Z,100511.70
2022-10-20T08:07:00.899Z,100510.27
2022-10-20T08:09:29.309Z,100517.18
2022-10-20T08:11:57.629Z,100514.59
2022-10-20T08:14:32.127Z,100513.90
2022-10-20T08:17:02.238Z,100519.23
2022-10-20T08:19:32.204Z,100532.11
2022-10-20T08:22:00.649Z,100517.05
2022-10-20T08:24:29.400Z,100515.19
2022-10-20T08:26:57.709Z,100519.14
2022-10-20T08:29:26.065Z,100521.48
2022-10-20T08:31:54.363Z,100526.20
2022-10-20T08:34:22.714Z,100527.96
2022-10-20T08:36:50.977Z,100515.20
2022-10-20T08:39:19.722Z,100521.39
2022-10-20T08:42:08.854Z,100527.10
2022-10-20T08:44:40.763Z,100532.98
2022-10-20T08:47:30.882Z,100527.84
2022-10-20T08:50:05.932Z,100537.17
2022-10-20T08:52:34.604Z,100526.38
2022-10-20T08:55:05.765Z,100532.05
2022-10-20T08:57:36.483Z,100535.83
2022-10-20T09:00:21.491Z,100546.02
2022-10-20T09:02:51.992Z,100546.13
2022-10-20T09:05:26.992Z,100545.50
2022-10-20T09:07:55.323Z,100539.80
2022-10-20T09:10:38.786Z,100543.46
2022-10-20T09:13:18.642Z,100539.59
2022-10-20T09:15:50.092Z,100545.17
2022-10-20T09:18:19.514Z,100549.23
2022-10-20T09:20:56.277Z,100539.86
2022-10-20T09:23:43.787Z,100536.53
2022-10-20T09:26:57.470Z,100542.48
2022-10-20T09:29:38.120Z,100540.77
2022-10-20T09:32:47.795Z,100549.88
2022-10-20T09:35:31.961Z,100536.49
2022-10-20T09:38:29.762Z,100534.09
2022-10-20T09:41:18.097Z,100545.15
2022-10-20T09:44:13.866Z,100533.70
2022-10-20T09:46:49.669Z,100541.45
2022-10-20T09:49:30.590Z,100547.91
2022-10-20T09:52:01.377Z,100531.91
2022-10-20T09:54:30.777Z,100540.77
2022-10-20T09:57:18.568Z,100545.34
2022-10-20T09:59:51.139Z,100529.84
2022-10-20T10:02:22.444Z,100531.29
2022-10-20T10:04:55.181Z,100539.50
2022-10-20T10:07:26.615Z,100545.23
2022-10-20T10:10:08.186Z,100541.63
2022-10-20T10:12:37.391Z,100552.78
2022-10-20T10:15:23.998Z,100559.05
2022-10-20T10:17:52.685Z,100544.92
2022-10-20T10:20:37.591Z,100552.77
2022-10-20T10:23:24.869Z,100540.98
2022-10-20T10:25:55.751Z,100547.81
2022-10-20T10:28:37.379Z,100533.67
2022-10-20T10:31:22.341Z,100543.83
2022-10-20T10:33:56.667Z,100542.70
2022-10-20T10:36:34.994Z,100544.42
2022-10-20T10:39:12.140Z,100533.02
2022-10-20T10:42:17.149Z,100543.81
2022-10-20T10:45:12.633Z,100539.08
2022-10-20T10:48:27.777Z,100535.84
2022-10-20T10:51:02.985Z,100538.63
2022-10-20T10:54:15.087Z,100536.05
2022-10-20T10:56:54.898Z,100537.93
2022-10-20T10:59:35.650Z,100543.76
2022-10-20T11:02:37.671Z,100541.42
2022-10-20T11:05:49.603Z,100539.55
2022-10-20T11:09:02.550Z,100541.58
2022-10-20T11:11:52.662Z,100553.02
2022-10-20T11:14:59.293Z,100547.96
2022-10-20T11:17:32.445Z,100545.99
2022-10-20T11:20:54.498Z,100548.48
2022-10-20T11:24:13.044Z,100548.64
2022-10-20T11:26:47.786Z,100540.74
2022-10-20T11:29:46.896Z,100539.73
2022-10-20T11:32:15.225Z,100539.89
2022-10-20T11:35:16.112Z,100529.13
2022-10-20T11:38:21.521Z,100534.17
2022-10-20T11:41:04.634Z,100541.44
2022-10-20T11:43:58.695Z,100529.58
2022-10-20T11:46:47.632Z,100526.25
2022-10-20T11:49:16.173Z,100534.85
2022-10-20T11:52:13.653Z,100527.24
2022-10-20T11:55:01.498Z,100536.13
2022-10-20T11:58:01.293Z,100521.55
2022-10-20T12:00:58.950Z,100526.11
2022-10-20T12:03:53.909Z,100518.05
2022-10-20T12:07:18.448Z,100523.05
2022-10-20T12:10:00.534Z,100522.11
2022-10-20T12:12:39.176Z,100541.48
2022-10-20T12:15:24.425Z,100530.20
2022-10-20T12:17:55.379Z,100536.98
2022-10-20T12:20:51.382Z,100532.02
2022-10-20T12:23:53.475Z,100536.16
2022-10-20T12:27:09.486Z,100536.51
2022-10-20T12:29:37.930Z,100536.92
2022-10-20T12:32:36.527Z,100541.14
2022-10-20T12:35:11.509Z,100539.28
2022-10-20T12:37:42.396Z,100549.87
2022-10-20T12:40:13.330Z,100530.59
2022-10-20T12:42:48.733Z,100560.03
2022-10-20T12:45:19.741Z,100548.85
2022-10-20T12:48:01.438Z,100547.13
2022-10-20T12:50:47.248Z,100551.91
2022-10-20T12:53:29.728Z,100552.08
2022-10-20T12:56:05.493Z,100554.06
2022-10-20T12:59:08.899Z,100546.13
2022-10-20T13:02:20.194Z,100547.13
2022-10-20T13:05:06.462Z,100560.35
2022-10-20T13:07:49.883Z,100563.73
2022-10-20T13:10:27.427Z,100557.04
2022-10-20T13:13:01.911Z,100557.45
2022-10-20T13:15:43.044Z,100559.83
2022-10-20T13:18:11.931Z,100561.82
2022-10-20T13:20:49.652Z,100561.41
2022-10-20T13:23:26.825Z,100569.39
2022-10-20T13:26:05.504Z,100570.65
2022-10-20T13:28:34.186Z,100582.45
2022-10-20T13:31:33.880Z,100579.61
2022-10-20T13:34:25.270Z,100574.88
2022-10-20T13:37:41.952Z,100581.40
2022-10-20T13:41:13.401Z,100591.97
2022-10-20T13:43:57.754Z,100584.29
2022-10-20T13:46:51.218Z,100584.35
2022-10-20T13:49:55.198Z,100596.89
2022-10-20T13:52:29.362Z,100593.80
2022-10-20T13:55:00.030Z,100579.77
2022-10-20T13:57:33.241Z,100584.08
2022-10-20T14:00:16.259Z,100588.54
2022-10-20T14:03:06.590Z,100591.56
2022-10-20T14:05:39.681Z,100591.11
2022-10-20T14:08:10.730Z,100593.77
2022-10-20T14:11:04.841Z,100587.30
2022-10-20T14:13:35.965Z,100592.08
2022-10-20T14:16:07.558Z,100592.52
2022-10-20T14:18:39.675Z,100585.88
2022-10-20T14:21:19.255Z,100589.36
2022-10-20T14:23:49.380Z,100595.56
2022-10-20T14:26:21.982Z,100600.09
2022-10-20T14:28:52.253Z,100598.22
2022-10-20T14:31:25.421Z,100597.50
2022-10-20T14:33:53.929Z,100604.45
2022-10-20T14:36:30.796Z,100608.51
2022-10-20T14:39:01.220Z,100610.14
2022-10-20T14:41:36.572Z,100607.04
2022-10-20T14:44:14.700Z,100611.69
2022-10-20T14:46:53.564Z,100607.89
2022-10-20T14:49:38.108Z,100612.70
2022-10-20T14:52:32.049Z,100616.55
2022-10-20T14:55:00.345Z,100617.13
2022-10-20T14:57:31.881Z,100617.55
2022-10-20T15:00:22.082Z,100617.80
2022-10-20T15:02:56.545Z,100621.08
2022-10-20T15:05:32.462Z,100627.37
2022-10-20T15:08:18.253Z,100628.27
2022-10-20T15:10:46.893Z,100627.55
2022-10-20T15:13:33.061Z,100629.32
2022-10-20T15:16:04.667Z,100631.91
2022-10-20T15:18:37.786Z,100632.96
2022-10-20T15:21:08.647Z,100636.39
2022-10-20T15:23:36.881Z,100640.47
2022-10-20T15:26:11.046Z,100630.50
2022-10-20T15:28:49.220Z,100635.35
2022-10-20T15:31:21.269Z,100634.85
2022-10-20T15:33:49.752Z,100638.11
2022-10-20T15:36:28.402Z,100644.41
2022-10-20T15:38:57.179Z,100644.52
2022-10-20T15:41:31.776Z,100648.67
2022-10-20T15:44:08.106Z,100646.05
2022-10-20T15:46:36.388Z,100643.39
2022-10-20T15:49:04.703Z,100649.68
2022-10-20T15:51:36.317Z,100645.23
2022-10-20T15:54:04.735Z,100650.90
2022-10-20T15:56:33.902Z,100654.77
2022-10-20T15:59:03.049Z,100649.69
2022-10-20T16:01:31.461Z,100655.30
2022-10-20T16:04:03.360Z,100656.23
2022-10-20T16:06:31.623Z,100654.57
2022-10-20T16:08:59.907Z,100659.78
2022-10-20T16:11:28.254Z,100663.48
2022-10-20T16:13:56.542Z,100667.30
2022-10-20T16:16:24.858Z,100671.77
2022-10-20T16:18:53.150Z,100674.77
2022-10-20T16:21:21.487Z,100677.41
2022-10-20T16:23:49.821Z,100674.21
2022-10-20T16:26:18.128Z,100674.38
2022-10-20T16:28:46.353Z,100679.89
2022-10-20T16:31:16.450Z,100682.09
2022-10-20T16:33:45.282Z,100686.73
2022-10-20T16:36:16.420Z,100681.94
2022-10-20T16:38:45.291Z,100691.59
2022-10-20T16:41:15.992Z,100695.23
2022-10-20T16:43:46.042Z,100703.04
2022-10-20T16:46:15.997Z,100704.88
2022-10-20T16:48:47.649Z,100711.84
2022-10-20T16:51:17.419Z,100715.19
2022-10-20T16:53:45.801Z,100715.61
2022-10-20T16:56:16.891Z,100719.09
2022-10-20T16:58:49.166Z,100723.23
2022-10-20T17:01:22.418Z,100723.00
2022-10-20T17:03:53.195Z,100731.25
2022-10-20T17:06:25.264Z,100732.56
2022-10-20T17:08:54.537Z,100733.15
2022-10-20T17:11:27.262Z,100739.72
2022-10-20T17:13:55.586Z,100735.86
2022-10-20T17:16:33.977Z,100737.61
2022-10-20T17:19:02.867Z,100738.15
2022-10-20T17:21:33.647Z,100743.16
2022-10-20T17:24:02.562Z,100747.27
2022-10-20T17:26:31.584Z,100744.79
2022-10-20T17:29:01.483Z,100742.44
2022-10-20T17:31:30.629Z,100748.21
2022-10-20T17:34:00.065Z,100751.11
2022-10-20T17:36:29.976Z,100751.41
2022-10-20T17:39:06.547Z,100756.54
2022-10-20T17:41:36.000Z,100759.45
2022-10-20T17:44:06.406Z,100761.92
2022-10-20T17:46:35.169Z,100759.83
2022-10-20T17:49:03.502Z,100765.21
2022-10-20T17:51:34.848Z,100768.46
2022-10-20T17:54:04.030Z,100770.48
2022-10-20T17:56:36.148Z,100773.77
2022-10-20T17:59:07.677Z,100777.51
2022-10-20T18:01:39.361Z,100777.70
2022-10-20T18:04:16.827Z,100779.97
2022-10-20T18:06:45.760Z,100780.84
2022-10-20T18:09:17.355Z,100782.12
2022-10-20T18:11:49.445Z,100781.73
2022-10-20T18:14:18.395Z,100785.27
2022-10-20T18:16:47.319Z,100787.79
2022-10-20T18:19:19.193Z,100793.71
2022-10-20T18:21:47.907Z,100794.27
2022-10-20T18:24:17.976Z,100797.52
2022-10-20T18:26:46.782Z,100797.46
2022-10-20T18:29:16.722Z,100797.33
2022-10-20T18:31:47.650Z,100803.42
2022-10-20T18:34:20.791Z,100799.41
2022-10-20T18:36:51.595Z,100801.52
2022-10-20T18:39:20.216Z,100805.31
2022-10-20T18:41:52.522Z,100806.26
2022-10-20T18:44:21.238Z,100810.84
2022-10-20T18:46:51.256Z,100812.95
2022-10-20T18:49:21.531Z,100810.31
2022-10-20T18:51:50.606Z,100811.80
2022-10-20T18:54:19.122Z,100804.95
2022-10-20T18:56:47.717Z,100810.13
2022-10-20T18:59:17.451Z,100807.61
2022-10-20T19:01:45.908Z,100820.10
2022-10-20T19:04:14.584Z,100828.04
2022-10-20T19:06:46.741Z,100830.66
2022-10-20T19:09:21.490Z,100838.95
2022-10-20T19:14:23.774Z,100849.80
2022-10-20T19:16:53.565Z,100853.26
2022-10-20T19:19:23.079Z,100852.41
2022-10-20T19:21:51.362Z,100858.36
2022-10-20T19:24:23.923Z,100856.74
2022-10-20T19:27:24.481Z,100863.92
2022-10-20T19:29:46.303Z,100863.16
2022-10-20T19:32:14.791Z,100866.63
2022-10-20T19:34:43.266Z,100871.63
2022-10-20T19:37:11.521Z,100873.39
2022-10-20T19:39:42.996Z,100876.20
2022-10-20T19:42:11.858Z,100876.30
2022-10-20T19:44:40.243Z,100881.30
2022-10-20T19:47:09.134Z,100878.55
2022-10-20T19:49:37.918Z,100882.23
2022-10-20T19:52:07.854Z,100884.66
2022-10-20T19:54:36.229Z,100884.63
2022-10-20T19:57:06.449Z,100893.02
2022-10-20T19:59:34.829Z,100896.33
2022-10-20T20:02:03.910Z,100896.55
2022-10-20T20:04:32.281Z,100898.30
2022-10-20T20:07:02.454Z,100894.12
2022-10-20T20:09:31.806Z,100897.91
2022-10-20T20:12:00.319Z,100900.19
2022-10-20T20:14:28.667Z,100900.85
2022-10-20T20:16:56.994Z,100904.48
2022-10-20T20:19:25.643Z,100906.73
2022-10-20T20:21:54.025Z,100903.75
2022-10-20T20:24:22.402Z,100906.56
2022-10-20T20:26:50.765Z,100910.15
2022-10-20T20:29:19.258Z,100908.01
2022-10-20T20:31:48.458Z,100910.13
2022-10-20T20:34:16.938Z,100913.45
2022-10-20T20:36:45.419Z,100916.92
2022-10-20T20:39:13.762Z,100910.89
2022-10-20T20:41:42.256Z,100909.75
2022-10-20T20:44:10.798Z,100914.12
2022-10-20T20:46:39.238Z,100912.36
2022-10-20T20:49:07.607Z,100912.39
2022-10-20T20:51:35.972Z,100906.58
2022-10-20T20:54:04.461Z,100911.41
2022-10-20T20:56:33.061Z,100910.13
2022-10-20T20:59:01.438Z,100907.02
2022-10-20T21:01:34.168Z,100905.52
2022-10-20T21:04:05.659Z,100906.08
2022-10-20T21:06:56.635Z,100905.11
2022-10-20T21:09:22.585Z,100906.36
2022-10-20T21:11:50.861Z,100909.20
2022-10-20T21:14:19.258Z,100908.31
2022-10-20T21:16:47.614Z,100911.58
2022-10-20T21:19:16.113Z,100912.63
2022-10-20T21:21:50.933Z,100916.92
2022-10-20T21:24:19.317Z,100917.77
2022-10-20T21:26:48.946Z,100913.67
2022-10-20T21:29:17.703Z,100915.73
2022-10-20T21:31:46.403Z,100910.52
2022-10-20T21:34:14.785Z,100913.33
2022-10-20T21:36:43.285Z,100913.66
2022-10-20T21:39:16.162Z,100916.96
2022-10-20T21:41:46.320Z,100926.74
2022-10-20T21:44:15.302Z,100927.64
2022-10-20T21:46:49.406Z,100930.70
2022-10-20T21:49:26.098Z,100929.25
2022-10-20T21:51:57.415Z,100921.55
2022-10-20T21:54:29.536Z,100924.63
2022-10-20T21:56:58.121Z,100927.46
2022-10-20T21:59:29.549Z,100928.12
2022-10-20T22:02:00.721Z,100928.45
2022-10-20T22:04:31.159Z,100932.13
2022-10-20T22:06:59.908Z,100934.39
2022-10-20T22:09:28.443Z,100939.34
2022-10-20T22:11:59.194Z,100936.85
2022-10-20T22:14:28.234Z,100934.85
2022-10-20T22:16:56.817Z,100935.59
2022-10-20T22:19:25.631Z,100929.59
2022-10-20T22:21:54.380Z,100934.82
2022-10-20T22:24:23.569Z,100938.20
2022-10-20T22:26:53.190Z,100942.95
2022-10-20T22:29:22.828Z,100938.21
2022-10-20T22:31:51.049Z,100938.63
2022-10-20T22:34:20.613Z,100933.48
2022-10-20T22:36:48.997Z,100936.02
2022-10-20T22:39:17.574Z,100939.14
2022-10-20T22:41:45.948Z,100936.55
2022-10-20T22:44:14.245Z,100936.10
2022-10-20T22:46:42.691Z,100930.42
2022-10-20T22:49:13.277Z,100930.33
2022-10-20T22:51:41.612Z,100936.86
2022-10-20T22:54:10.083Z,100930.09
2022-10-20T22:56:38.510Z,100934.42
2022-10-20T22:59:07.053Z,100938.43
2022-10-20T23:01:35.434Z,100945.50
2022-10-20T23:04:03.792Z,100944.11
2022-10-20T23:06:32.275Z,100943.23
2022-10-20T23:09:00.721Z,100939.80
2022-10-20T23:11:29.642Z,100941.24
2022-10-20T23:13:57.924Z,100945.55
2022-10-20T23:29:26.373Z,100947.70
2022-10-20T23:31:54.735Z,100946.46
2022-10-20T23:34:23.361Z,100948.14
2022-10-20T23:36:52.008Z,100952.37
2022-10-20T23:39:20.241Z,100954.53
2022-10-20T23:41:48.557Z,100961.58
2022-10-20T23:44:17.042Z,100952.09
2022-10-20T23:46:45.435Z,100959.38
2022-10-20T23:49:14.270Z,100957.88
2022-10-20T23:51:42.603Z,100959.67
2022-10-20T23:54:12.982Z,100962.25
2022-10-20T23:56:41.303Z,100963.11
2022-10-20T23:59:09.582Z,100968.56
